sensor_id;sensor_type;location;lat;lon;timestamp;pressure;altitude;pressure_sealevel;temperature;humidity
77685;BME280;66844;46.092;18.268;2023-02-11T00:00:03;101411.44;;;-2.53;67.50
77685;BME280;66844;46.092;18.268;2023-02-11T00:00:39;101406.28;;;-2.51;67.25
77685;BME280;66844;46.092;18.268;2023-02-11T00:01:23;101408.94;;;-2.50;67.27
77685;BME280;66844;46.092;18.268;2023-02-11T00:01:55;101411.44;;;-2.53;67.66
77685;BME280;66844;46.092;18.268;2023-02-11T00:02:27;101399.16;;;-2.58;67.98
77685;BME280;66844;46.092;18.268;2023-02-11T00:03:00;101408.91;;;-2.51;67.87
77685;BME280;66844;46.092;18.268;2023-02-11T00:03:32;101404.59;;;-2.49;67.11
77685;BME280;66844;46.092;18.268;2023-02-11T00:04:05;101403.75;;;-2.48;67.08
77685;BME280;66844;46.092;18.268;2023-02-11T00:04:37;101405.53;;;-2.47;67.61
77685;BME280;66844;46.092;18.268;2023-02-11T00:05:09;101405.53;;;-2.47;67.25
77685;BME280;66844;46.092;18.268;2023-02-11T00:05:41;101402.94;;;-2.46;67.04
77685;BME280;66844;46.092;18.268;2023-02-11T00:06:13;101398.72;;;-2.42;66.84
77685;BME280;66844;46.092;18.268;2023-02-11T00:06:45;101399.69;;;-2.37;66.48
77685;BME280;66844;46.092;18.268;2023-02-11T00:07:16;101396.19;;;-2.37;66.86
77685;BME280;66844;46.092;18.268;2023-02-11T00:07:48;101406.63;;;-2.37;66.50
77685;BME280;66844;46.092;18.268;2023-02-11T00:08:20;101404.00;;;-2.39;66.67
77685;BME280;66844;46.092;18.268;2023-02-11T00:08:53;101402.22;;;-2.40;67.13
77685;BME280;66844;46.092;18.268;2023-02-11T00:09:24;101399.69;;;-2.38;66.83
77685;BME280;66844;46.092;18.268;2023-02-11T00:09:56;101398.03;;;-2.35;66.37
77685;BME280;66844;46.092;18.268;2023-02-11T00:10:28;101394.47;;;-2.37;66.72
77685;BME280;66844;46.092;18.268;2023-02-11T00:11:00;101392.91;;;-2.30;66.56
77685;BME280;66844;46.092;18.268;2023-02-11T00:11:32;101392.94;;;-2.29;67.04
77685;BME280;66844;46.092;18.268;2023-02-11T00:12:05;101396.56;;;-2.24;66.70
77685;BME280;66844;46.092;18.268;2023-02-11T00:12:37;101392.19;;;-2.23;66.47
77685;BME280;66844;46.092;18.268;2023-02-11T00:13:09;101393.97;;;-2.22;66.61
77685;BME280;66844;46.092;18.268;2023-02-11T00:13:42;101390.53;;;-2.21;66.30
77685;BME280;66844;46.092;18.268;2023-02-11T00:14:14;101390.53;;;-2.21;66.59
77685;BME280;66844;46.092;18.268;2023-02-11T00:14:46;101394.03;;;-2.19;65.76
77685;BME280;66844;46.092;18.268;2023-02-11T00:15:18;101391.44;;;-2.19;66.16
77685;BME280;66844;46.092;18.268;2023-02-11T00:15:52;101394.16;;;-2.15;66.46
77685;BME280;66844;46.092;18.268;2023-02-11T00:16:24;101391.59;;;-2.13;65.74
77685;BME280;66844;46.092;18.268;2023-02-11T00:16:57;101396.00;;;-2.11;65.95
77685;BME280;66844;46.092;18.268;2023-02-11T00:17:29;101381.19;;;-2.12;65.74
77685;BME280;66844;46.092;18.268;2023-02-11T00:18:00;101391.72;;;-2.09;65.91
77685;BME280;66844;46.092;18.268;2023-02-11T00:18:32;101378.56;;;-2.13;65.52
77685;BME280;66844;46.092;18.268;2023-02-11T00:19:04;101389.13;;;-2.07;65.79
77685;BME280;66844;46.092;18.268;2023-02-11T00:19:37;101394.34;;;-2.07;65.85
77685;BME280;66844;46.092;18.268;2023-02-11T00:20:09;101376.16;;;-2.06;66.18
77685;BME280;66844;46.092;18.268;2023-02-11T00:20:41;101381.34;;;-2.06;65.50
77685;BME280;66844;46.092;18.268;2023-02-11T00:21:16;101381.47;;;-2.01;65.10
77685;BME280;66844;46.092;18.268;2023-02-11T00:21:48;101376.25;;;-2.01;65.40
77685;BME280;66844;46.092;18.268;2023-02-11T00:22:20;101380.66;;;-1.99;65.72
77685;BME280;66844;46.092;18.268;2023-02-11T00:22:51;101378.94;;;-1.98;65.50
77685;BME280;66844;46.092;18.268;2023-02-11T00:23:23;101378.06;;;-1.97;65.44
77685;BME280;66844;46.092;18.268;2023-02-11T00:23:56;101381.56;;;-1.97;65.97
77685;BME280;66844;46.092;18.268;2023-02-11T00:24:30;101376.28;;;-2.00;65.71
77685;BME280;66844;46.092;18.268;2023-02-11T00:25:02;101380.72;;;-1.96;65.07
77685;BME280;66844;46.092;18.268;2023-02-11T00:25:39;101372.81;;;-1.99;65.01
77685;BME280;66844;46.092;18.268;2023-02-11T00:26:20;101371.91;;;-2.01;65.19
77685;BME280;66844;46.092;18.268;2023-02-11T00:26:52;101383.25;;;-1.99;64.99
77685;BME280;66844;46.092;18.268;2023-02-11T00:27:24;101379.72;;;-2.01;65.09
77685;BME280;66844;46.092;18.268;2023-02-11T00:27:56;101376.25;;;-2.01;65.01
77685;BME280;66844;46.092;18.268;2023-02-11T00:28:28;101378.88;;;-2.00;65.30
77685;BME280;66844;46.092;18.268;2023-02-11T00:29:00;101379.75;;;-1.99;64.80
77685;BME280;66844;46.092;18.268;2023-02-11T00:29:33;101379.72;;;-2.01;65.42
77685;BME280;66844;46.092;18.268;2023-02-11T00:30:05;101376.25;;;-2.01;65.19
77685;BME280;66844;46.092;18.268;2023-02-11T00:30:37;101371.00;;;-2.03;64.82
77685;BME280;66844;46.092;18.268;2023-02-11T00:31:09;101381.53;;;-1.98;65.73
77685;BME280;66844;46.092;18.268;2023-02-11T00:31:41;101378.03;;;-1.99;65.40
77685;BME280;66844;46.092;18.268;2023-02-11T00:32:13;101375.44;;;-1.97;65.64
77685;BME280;66844;46.092;18.268;2023-02-11T00:32:45;101378.06;;;-1.97;65.19
77685;BME280;66844;46.092;18.268;2023-02-11T00:33:17;101376.38;;;-1.95;65.84
77685;BME280;66844;46.092;18.268;2023-02-11T00:33:49;101376.31;;;-1.98;65.34
77685;BME280;66844;46.092;18.268;2023-02-11T00:34:22;101378.81;;;-2.03;65.22
77685;BME280;66844;46.092;18.268;2023-02-11T00:34:54;101376.16;;;-2.06;65.26
77685;BME280;66844;46.092;18.268;2023-02-11T00:35:26;101373.53;;;-2.06;65.94
77685;BME280;66844;46.092;18.268;2023-02-11T00:36:03;101383.09;;;-2.06;65.35
77685;BME280;66844;46.092;18.268;2023-02-11T00:36:34;101380.41;;;-2.09;65.77
77685;BME280;66844;46.092;18.268;2023-02-11T00:37:06;101380.47;;;-2.06;66.30
77685;BME280;66844;46.092;18.268;2023-02-11T00:37:38;101378.69;;;-2.09;66.00
77685;BME280;66844;46.092;18.268;2023-02-11T00:38:10;101383.81;;;-2.12;66.11
77685;BME280;66844;46.092;18.268;2023-02-11T00:38:43;101382.06;;;-2.13;65.71
77685;BME280;66844;46.092;18.268;2023-02-11T00:39:15;101379.47;;;-2.13;66.21
77685;BME280;66844;46.092;18.268;2023-02-11T00:39:47;101382.84;;;-2.15;65.99
77685;BME280;66844;46.092;18.268;2023-02-11T00:40:21;101373.19;;;-2.21;65.86
77685;BME280;66844;46.092;18.268;2023-02-11T00:40:53;101384.50;;;-2.19;66.67
77685;BME280;66844;46.092;18.268;2023-02-11T00:41:25;101384.38;;;-2.23;66.43
77685;BME280;66844;46.092;18.268;2023-02-11T00:41:57;101370.25;;;-2.33;66.88
77685;BME280;66844;46.092;18.268;2023-02-11T00:42:29;101379.88;;;-2.30;66.66
77685;BME280;66844;46.092;18.268;2023-02-11T00:43:01;101370.13;;;-2.39;66.68
77685;BME280;66844;46.092;18.268;2023-02-11T00:43:34;101373.63;;;-2.37;67.10
77685;BME280;66844;46.092;18.268;2023-02-11T00:44:06;101385.00;;;-2.35;67.01
77685;BME280;66844;46.092;18.268;2023-02-11T00:44:38;101377.78;;;-2.45;66.74
77685;BME280;66844;46.092;18.268;2023-02-11T00:45:10;101377.50;;;-2.57;68.06
77685;BME280;66844;46.092;18.268;2023-02-11T00:45:42;101374.91;;;-2.56;67.56
77685;BME280;66844;46.092;18.268;2023-02-11T00:46:14;101390.59;;;-2.53;67.92
77685;BME280;66844;46.092;18.268;2023-02-11T00:46:46;101387.16;;;-2.52;67.84
77685;BME280;66844;46.092;18.268;2023-02-11T00:47:18;101388.88;;;-2.52;67.52
77685;BME280;66844;46.092;18.268;2023-02-11T00:47:50;101384.53;;;-2.53;67.70
77685;BME280;66844;46.092;18.268;2023-02-11T00:48:22;101380.94;;;-2.57;67.98
77685;BME280;66844;46.092;18.268;2023-02-11T00:48:53;101386.84;;;-2.64;68.33
77685;BME280;66844;46.092;18.268;2023-02-11T00:49:28;101380.81;;;-2.63;68.23
77685;BME280;66844;46.092;18.268;2023-02-11T00:50:00;101381.63;;;-2.65;68.35
77685;BME280;66844;46.092;18.268;2023-02-11T00:50:32;101377.88;;;-2.75;68.39
77685;BME280;66844;46.092;18.268;2023-02-11T00:51:05;101387.50;;;-2.72;68.34
77685;BME280;66844;46.092;18.268;2023-02-11T00:51:37;101382.19;;;-2.75;68.12
77685;BME280;66844;46.092;18.268;2023-02-11T00:52:09;101382.19;;;-2.75;68.12
77685;BME280;66844;46.092;18.268;2023-02-11T00:52:41;101385.69;;;-2.75;68.04
77685;BME280;66844;46.092;18.268;2023-02-11T00:53:12;101389.09;;;-2.77;67.98
77685;BME280;66844;46.092;18.268;2023-02-11T00:53:44;101390.06;;;-2.74;68.76
77685;BME280;66844;46.092;18.268;2023-02-11T00:54:16;101387.47;;;-2.74;68.29
77685;BME280;66844;46.092;18.268;2023-02-11T00:54:48;101389.09;;;-2.77;68.02
77685;BME280;66844;46.092;18.268;2023-02-11T00:55:20;101384.56;;;-2.84;68.73
77685;BME280;66844;46.092;18.268;2023-02-11T00:55:52;101392.38;;;-2.84;67.85
77685;BME280;66844;46.092;18.268;2023-02-11T00:56:24;101392.38;;;-2.84;69.05
77685;BME280;66844;46.092;18.268;2023-02-11T00:56:55;101388.00;;;-2.87;68.80
77685;BME280;66844;46.092;18.268;2023-02-11T00:57:27;101386.97;;;-2.92;69.16
77685;BME280;66844;46.092;18.268;2023-02-11T00:57:59;101386.16;;;-2.89;69.70
77685;BME280;66844;46.092;18.268;2023-02-11T00:58:31;101381.69;;;-2.95;68.72
77685;BME280;66844;46.092;18.268;2023-02-11T00:59:02;101381.78;;;-2.92;69.17
77685;BME280;66844;46.092;18.268;2023-02-11T00:59:34;101391.28;;;-2.92;69.33
77685;BME280;66844;46.092;18.268;2023-02-11T01:00:08;101389.53;;;-2.94;69.13
77685;BME280;66844;46.092;18.268;2023-02-11T01:00:40;101390.47;;;-2.91;69.34
77685;BME280;66844;46.092;18.268;2023-02-11T01:01:12;101387.81;;;-2.93;69.83
77685;BME280;66844;46.092;18.268;2023-02-11T01:01:44;101383.34;;;-2.97;70.15
77685;BME280;66844;46.092;18.268;2023-02-11T01:02:16;101386.91;;;-2.95;69.66
77685;BME280;66844;46.092;18.268;2023-02-11T01:02:48;101382.53;;;-2.96;69.65
77685;BME280;66844;46.092;18.268;2023-02-11T01:03:20;101388.53;;;-2.99;69.88
77685;BME280;66844;46.092;18.268;2023-02-11T01:03:52;101372.72;;;-3.05;70.03
77685;BME280;66844;46.092;18.268;2023-02-11T01:04:24;101378.91;;;-3.01;70.44
77685;BME280;66844;46.092;18.268;2023-02-11T01:04:55;101381.56;;;-3.00;69.97
77685;BME280;66844;46.092;18.268;2023-02-11T01:05:29;101383.47;;;-2.94;69.49
77685;BME280;66844;46.092;18.268;2023-02-11T01:06:01;101381.91;;;-2.87;69.63
77685;BME280;66844;46.092;18.268;2023-02-11T01:06:32;101370.47;;;-2.92;69.03
77685;BME280;66844;46.092;18.268;2023-02-11T01:07:04;101374.78;;;-2.95;70.71
77685;BME280;66844;46.092;18.268;2023-02-11T01:07:36;101376.44;;;-2.97;70.65
77685;BME280;66844;46.092;18.268;2023-02-11T01:08:08;101376.41;;;-2.98;70.85
77685;BME280;66844;46.092;18.268;2023-02-11T01:08:40;101370.47;;;-2.92;69.67
77685;BME280;66844;46.092;18.268;2023-02-11T01:09:12;101366.09;;;-2.94;70.09
77685;BME280;66844;46.092;18.268;2023-02-11T01:09:44;101368.88;;;-2.87;69.75
77685;BME280;66844;46.092;18.268;2023-02-11T01:10:15;101366.22;;;-2.89;69.58
77685;BME280;66844;46.092;18.268;2023-02-11T01:11:15;101360.94;;;-2.92;70.08
77685;BME280;66844;46.092;18.268;2023-02-11T01:11:47;101365.31;;;-2.91;70.18
77685;BME280;66844;46.092;18.268;2023-02-11T01:12:19;101351.47;;;-2.88;70.03
77685;BME280;66844;46.092;18.268;2023-02-11T01:12:51;101365.41;;;-2.86;69.44
77685;BME280;66844;46.092;18.268;2023-02-11T01:13:24;101362.78;;;-2.88;70.04
77685;BME280;66844;46.092;18.268;2023-02-11T01:13:56;101360.19;;;-2.88;69.56
77685;BME280;66844;46.092;18.268;2023-02-11T01:14:28;101358.41;;;-2.89;69.55
77685;BME280;66844;46.092;18.268;2023-02-11T01:15:00;101349.50;;;-2.97;70.67
77685;BME280;66844;46.092;18.268;2023-02-11T01:15:32;101358.28;;;-2.94;70.80
77685;BME280;66844;46.092;18.268;2023-02-11T01:16:08;101359.09;;;-2.96;70.04
77685;BME280;66844;46.092;18.268;2023-02-11T01:16:40;101348.34;;;-3.08;70.44
77685;BME280;66844;46.092;18.268;2023-02-11T01:17:12;101356.22;;;-3.07;70.42
77685;BME280;66844;46.092;18.268;2023-02-11T01:17:44;101357.00;;;-3.09;70.82
77685;BME280;66844;46.092;18.268;2023-02-11T01:18:16;101353.34;;;-3.16;70.97
77685;BME280;66844;46.092;18.268;2023-02-11T01:18:48;101355.91;;;-3.17;70.53
77685;BME280;66844;46.092;18.268;2023-02-11T01:19:20;101357.66;;;-3.16;71.67
77685;BME280;66844;46.092;18.268;2023-02-11T01:19:51;101354.22;;;-3.17;70.95
77685;BME280;66844;46.092;18.268;2023-02-11T01:20:26;101348.69;;;-3.27;70.99
77685;BME280;66844;46.092;18.268;2023-02-11T01:20:59;101353.88;;;-3.27;71.78
77685;BME280;66844;46.092;18.268;2023-02-11T01:21:30;101352.22;;;-3.25;71.75
77685;BME280;66844;46.092;18.268;2023-02-11T01:22:03;101340.78;;;-3.32;71.30
77685;BME280;66844;46.092;18.268;2023-02-11T01:22:35;101351.19;;;-3.32;72.07
77685;BME280;66844;46.092;18.268;2023-02-11T01:23:10;101345.00;;;-3.35;72.01
77685;BME280;66844;46.092;18.268;2023-02-11T01:23:42;101357.22;;;-3.33;71.47
77685;BME280;66844;46.092;18.268;2023-02-11T01:24:14;101358.09;;;-3.32;72.03
77685;BME280;66844;46.092;18.268;2023-02-11T01:24:46;101358.97;;;-3.32;71.80
77685;BME280;66844;46.092;18.268;2023-02-11T01:25:17;101355.63;;;-3.28;70.97
77685;BME280;66844;46.092;18.268;2023-02-11T01:25:49;101348.44;;;-3.36;72.00
77685;BME280;66844;46.092;18.268;2023-02-11T01:26:22;101358.94;;;-3.33;71.50
77685;BME280;66844;46.092;18.268;2023-02-11T01:26:54;101358.03;;;-3.34;71.31
77685;BME280;66844;46.092;18.268;2023-02-11T01:27:25;101358.97;;;-3.32;71.82
77685;BME280;66844;46.092;18.268;2023-02-11T01:27:57;101360.69;;;-3.32;72.04
77685;BME280;66844;46.092;18.268;2023-02-11T01:28:30;101350.03;;;-3.42;71.38
77685;BME280;66844;46.092;18.268;2023-02-11T01:29:02;101354.47;;;-3.37;71.58
77685;BME280;66844;46.092;18.268;2023-02-11T01:29:34;101362.34;;;-3.34;71.93
77685;BME280;66844;46.092;18.268;2023-02-11T01:30:07;101354.41;;;-3.40;71.73
77685;BME280;66844;46.092;18.268;2023-02-11T01:30:40;101358.97;;;-3.32;71.41
77685;BME280;66844;46.092;18.268;2023-02-11T01:31:12;101359.75;;;-3.34;71.36
77685;BME280;66844;46.092;18.268;2023-02-11T01:31:44;101356.31;;;-3.33;72.16
77685;BME280;66844;46.092;18.268;2023-02-11T01:32:16;101349.41;;;-3.33;71.09
77685;BME280;66844;46.092;18.268;2023-02-11T01:32:48;101363.31;;;-3.32;71.25
77685;BME280;66844;46.092;18.268;2023-02-11T01:33:20;101351.06;;;-3.35;71.58
77685;BME280;66844;46.092;18.268;2023-02-11T01:33:53;101352.75;;;-3.37;71.07
77685;BME280;66844;46.092;18.268;2023-02-11T01:34:24;101355.44;;;-3.34;71.30
77685;BME280;66844;46.092;18.268;2023-02-11T01:34:56;101346.72;;;-3.36;72.02
77685;BME280;66844;46.092;18.268;2023-02-11T01:35:28;101356.19;;;-3.38;71.72
77685;BME280;66844;46.092;18.268;2023-02-11T01:36:01;101357.91;;;-3.38;71.33
77685;BME280;66844;46.092;18.268;2023-02-11T01:36:33;101357.97;;;-3.37;71.92
77685;BME280;66844;46.092;18.268;2023-02-11T01:37:05;101352.69;;;-3.38;71.23
77685;BME280;66844;46.092;18.268;2023-02-11T01:37:37;101344.88;;;-3.40;71.23
77685;BME280;66844;46.092;18.268;2023-02-11T01:38:24;101347.56;;;-3.37;71.79
77685;BME280;66844;46.092;18.268;2023-02-11T01:38:56;101345.75;;;-3.39;71.65
77685;BME280;66844;46.092;18.268;2023-02-11T01:39:32;101341.22;;;-3.47;71.72
77685;BME280;66844;46.092;18.268;2023-02-11T01:40:06;101335.81;;;-3.54;72.31
77685;BME280;66844;46.092;18.268;2023-02-11T01:40:38;101342.63;;;-3.58;72.48
77685;BME280;66844;46.092;18.268;2023-02-11T01:41:12;101335.75;;;-3.56;72.47
77685;BME280;66844;46.092;18.268;2023-02-11T01:41:45;101340.13;;;-3.55;72.27
77685;BME280;66844;46.092;18.268;2023-02-11T01:42:19;101330.59;;;-3.54;72.83
77685;BME280;66844;46.092;18.268;2023-02-11T01:42:51;101337.47;;;-3.56;72.74
77685;BME280;66844;46.092;18.268;2023-02-11T01:43:24;101341.75;;;-3.58;71.96
77685;BME280;66844;46.092;18.268;2023-02-11T01:43:56;101342.66;;;-3.56;72.73
77685;BME280;66844;46.092;18.268;2023-02-11T01:44:34;101339.22;;;-3.55;72.46
77685;BME280;66844;46.092;18.268;2023-02-11T01:46:54;101326.09;;;-3.60;72.03
77685;BME280;66844;46.092;18.268;2023-02-11T01:47:26;101340.03;;;-3.58;72.27
77685;BME280;66844;46.092;18.268;2023-02-11T01:47:58;101319.91;;;-3.63;72.78
77685;BME280;66844;46.092;18.268;2023-02-11T01:48:36;101333.88;;;-3.61;72.66
77685;BME280;66844;46.092;18.268;2023-02-11T01:49:19;101333.00;;;-3.60;72.87
77685;BME280;66844;46.092;18.268;2023-02-11T01:49:56;101328.69;;;-3.60;72.93
77685;BME280;66844;46.092;18.268;2023-02-11T01:50:30;101319.00;;;-3.65;73.22
77685;BME280;66844;46.092;18.268;2023-02-11T01:51:57;101326.97;;;-3.59;72.59
77685;BME280;66844;46.092;18.268;2023-02-11T01:52:28;101325.00;;;-3.68;73.00
77685;BME280;66844;46.092;18.268;2023-02-11T01:53:01;101323.09;;;-3.73;73.60
77685;BME280;66844;46.092;18.268;2023-02-11T01:53:54;101333.53;;;-3.72;73.80
77685;BME280;66844;46.092;18.268;2023-02-11T01:54:49;101327.47;;;-3.72;73.07
77685;BME280;66844;46.092;18.268;2023-02-11T01:55:41;101321.25;;;-3.77;73.89
77685;BME280;66844;46.092;18.268;2023-02-11T01:56:34;101315.09;;;-3.79;73.19
77685;BME280;66844;46.092;18.268;2023-02-11T01:57:29;101328.22;;;-3.76;72.61
77685;BME280;66844;46.092;18.268;2023-02-11T01:58:03;101306.41;;;-3.81;73.42
77685;BME280;66844;46.092;18.268;2023-02-11T01:58:40;101317.81;;;-3.76;73.21
77685;BME280;66844;46.092;18.268;2023-02-11T01:59:19;101308.09;;;-3.82;73.24
77685;BME280;66844;46.092;18.268;2023-02-11T02:00:07;101309.91;;;-3.79;72.90
77685;BME280;66844;46.092;18.268;2023-02-11T02:00:40;101311.69;;;-3.78;72.64
77685;BME280;66844;46.092;18.268;2023-02-11T02:01:19;101312.63;;;-3.76;72.98
77685;BME280;66844;46.092;18.268;2023-02-11T02:01:58;101304.69;;;-3.81;73.07
77685;BME280;66844;46.092;18.268;2023-02-11T02:03:43;101309.59;;;-3.90;73.56
77685;BME280;66844;46.092;18.268;2023-02-11T02:04:17;101305.25;;;-3.91;73.11
77685;BME280;66844;46.092;18.268;2023-02-11T02:04:54;101303.63;;;-3.87;73.56
77685;BME280;66844;46.092;18.268;2023-02-11T02:06:42;101302.75;;;-3.88;73.95
77685;BME280;66844;46.092;18.268;2023-02-11T02:07:27;101298.38;;;-3.89;74.06
77685;BME280;66844;46.092;18.268;2023-02-11T02:08:55;101289.56;;;-3.94;73.73
77685;BME280;66844;46.092;18.268;2023-02-11T02:09:38;101292.06;;;-3.97;73.50
77685;BME280;66844;46.092;18.268;2023-02-11T02:10:17;101295.31;;;-4.04;74.33
77685;BME280;66844;46.092;18.268;2023-02-11T02:10:52;101303.13;;;-4.04;73.60
77685;BME280;66844;46.092;18.268;2023-02-11T02:11:27;101293.59;;;-4.04;74.06
77685;BME280;66844;46.092;18.268;2023-02-11T02:11:59;101286.56;;;-4.08;74.41
77685;BME280;66844;46.092;18.268;2023-02-11T02:12:30;101285.50;;;-4.14;75.13
77685;BME280;66844;46.092;18.268;2023-02-11T02:13:02;101286.38;;;-4.14;74.70
77685;BME280;66844;46.092;18.268;2023-02-11T02:13:35;101299.53;;;-4.08;73.96
77685;BME280;66844;46.092;18.268;2023-02-11T02:14:06;101298.63;;;-4.10;74.01
77685;BME280;66844;46.092;18.268;2023-02-11T02:14:40;101298.72;;;-4.07;74.46
77685;BME280;66844;46.092;18.268;2023-02-11T02:15:27;101298.50;;;-4.14;74.39
77685;BME280;66844;46.092;18.268;2023-02-11T02:16:02;101297.75;;;-4.10;75.08
77685;BME280;66844;46.092;18.268;2023-02-11T02:16:36;101287.28;;;-4.13;74.56
77685;BME280;66844;46.092;18.268;2023-02-11T02:17:23;101294.41;;;-4.06;74.62
77685;BME280;66844;46.092;18.268;2023-02-11T02:18:02;101274.22;;;-4.15;75.71
77685;BME280;66844;46.092;18.268;2023-02-11T02:18:55;101283.03;;;-4.10;75.79
77685;BME280;66844;46.092;18.268;2023-02-11T02:19:51;101277.13;;;-4.04;75.30
77685;BME280;66844;46.092;18.268;2023-02-11T02:21:02;101275.63;;;-3.96;75.73
77685;BME280;66844;46.092;18.268;2023-02-11T02:23:09;101286.94;;;-3.94;74.96
77685;BME280;66844;46.092;18.268;2023-02-11T02:27:00;101290.41;;;-3.95;75.14
77685;BME280;66844;46.092;18.268;2023-02-11T02:29:05;101285.88;;;-4.02;74.34
77685;BME280;66844;46.092;18.268;2023-02-11T02:33:30;101285.31;;;-3.91;73.57
77685;BME280;66844;46.092;18.268;2023-02-11T02:34:44;101277.84;;;-3.80;74.70
77685;BME280;66844;46.092;18.268;2023-02-11T02:35:46;101283.16;;;-3.75;74.08
77685;BME280;66844;46.092;18.268;2023-02-11T02:36:31;101276.25;;;-3.75;74.57
77685;BME280;66844;46.092;18.268;2023-02-11T02:37:33;101278.75;;;-3.78;73.06
77685;BME280;66844;46.092;18.268;2023-02-11T02:38:12;101276.75;;;-3.88;73.89
77685;BME280;66844;46.092;18.268;2023-02-11T02:38:54;101274.97;;;-3.89;73.22
77685;BME280;66844;46.092;18.268;2023-02-11T02:39:31;101283.69;;;-3.87;73.89
77685;BME280;66844;46.092;18.268;2023-02-11T02:40:37;101275.06;;;-3.86;73.12
77685;BME280;66844;46.092;18.268;2023-02-11T02:41:10;101267.94;;;-3.93;73.46
77685;BME280;66844;46.092;18.268;2023-02-11T02:41:45;101276.56;;;-3.94;74.15
77685;BME280;66844;46.092;18.268;2023-02-11T02:42:19;101272.25;;;-3.94;74.40
77685;BME280;66844;46.092;18.268;2023-02-11T02:42:52;101267.94;;;-3.93;74.65
77685;BME280;66844;46.092;18.268;2023-02-11T02:43:26;101271.41;;;-3.93;74.93
77685;BME280;66844;46.092;18.268;2023-02-11T02:43:58;101272.25;;;-3.94;75.47
77685;BME280;66844;46.092;18.268;2023-02-11T02:44:30;101268.75;;;-3.94;74.22
77685;BME280;66844;46.092;18.268;2023-02-11T02:45:03;101269.38;;;-4.03;74.93
77685;BME280;66844;46.092;18.268;2023-02-11T02:45:35;101266.72;;;-4.04;75.14
77685;BME280;66844;46.092;18.268;2023-02-11T02:46:25;101264.97;;;-4.05;74.72
77685;BME280;66844;46.092;18.268;2023-02-11T02:46:57;101257.81;;;-4.12;74.81
77685;BME280;66844;46.092;18.268;2023-02-11T02:47:29;101265.63;;;-4.12;74.46
77685;BME280;66844;46.092;18.268;2023-02-11T02:48:01;101265.69;;;-4.11;74.70
77685;BME280;66844;46.092;18.268;2023-02-11T02:48:33;101263.88;;;-4.13;75.49
77685;BME280;66844;46.092;18.268;2023-02-11T02:49:13;101257.75;;;-4.15;74.75
77685;BME280;66844;46.092;18.268;2023-02-11T02:49:45;101266.50;;;-4.12;74.83
77685;BME280;66844;46.092;18.268;2023-02-11T02:50:23;101268.06;;;-4.18;74.94
77685;BME280;66844;46.092;18.268;2023-02-11T02:51:28;101268.94;;;-4.18;75.63
77685;BME280;66844;46.092;18.268;2023-02-11T03:00:17;101259.31;;;-4.49;76.22
77685;BME280;66844;46.092;18.268;2023-02-11T03:03:09;101261.28;;;-4.42;76.57
77685;BME280;66844;46.092;18.268;2023-02-11T03:04:02;101257.63;;;-4.47;76.33
77685;BME280;66844;46.092;18.268;2023-02-11T03:04:48;101252.41;;;-4.48;76.30
77685;BME280;66844;46.092;18.268;2023-02-11T03:08:37;101257.63;;;-4.48;76.18
77685;BME280;66844;46.092;18.268;2023-02-11T03:08:52;101253.31;;;-4.48;75.88
77685;BME280;66844;46.092;18.268;2023-02-11T03:09:35;101258.66;;;-4.43;76.50
77685;BME280;66844;46.092;18.268;2023-02-11T03:10:48;101255.28;;;-4.39;76.41
77685;BME280;66844;46.092;18.268;2023-02-11T03:11:16;101248.25;;;-4.43;76.28
77685;BME280;66844;46.092;18.268;2023-02-11T03:11:49;101252.56;;;-4.44;76.15
77685;BME280;66844;46.092;18.268;2023-02-11T03:12:22;101255.16;;;-4.44;76.12
77685;BME280;66844;46.092;18.268;2023-02-11T03:12:56;101250.06;;;-4.41;76.37
77685;BME280;66844;46.092;18.268;2023-02-11T03:13:31;101250.94;;;-4.40;76.67
77685;BME280;66844;46.092;18.268;2023-02-11T03:14:08;101250.00;;;-4.42;76.83
77685;BME280;66844;46.092;18.268;2023-02-11T03:14:41;101253.53;;;-4.40;76.34
77685;BME280;66844;46.092;18.268;2023-02-11T03:15:14;101246.56;;;-4.41;76.56
77685;BME280;66844;46.092;18.268;2023-02-11T03:15:51;101258.72;;;-4.40;77.30
77685;BME280;66844;46.092;18.268;2023-02-11T03:16:26;101252.69;;;-4.39;77.10
77685;BME280;66844;46.092;18.268;2023-02-11T03:17:03;101254.50;;;-4.36;77.09
77685;BME280;66844;46.092;18.268;2023-02-11T03:17:40;101250.09;;;-4.39;76.48
77685;BME280;66844;46.092;18.268;2023-02-11T03:18:17;101255.25;;;-4.41;76.43
77685;BME280;66844;46.092;18.268;2023-02-11T03:19:05;101243.97;;;-4.41;76.68
77685;BME280;66844;46.092;18.268;2023-02-11T03:19:43;101249.97;;;-4.44;76.17
77685;BME280;66844;46.092;18.268;2023-02-11T03:20:20;101248.34;;;-4.40;76.40
77685;BME280;66844;46.092;18.268;2023-02-11T03:20:53;101252.00;;;-4.33;75.88
77685;BME280;66844;46.092;18.268;2023-02-11T03:21:29;101249.31;;;-4.36;76.63
77685;BME280;66844;46.092;18.268;2023-02-11T03:22:09;101254.59;;;-4.33;76.06
77685;BME280;66844;46.092;18.268;2023-02-11T03:22:48;101252.00;;;-4.33;75.81
77685;BME280;66844;46.092;18.268;2023-02-11T03:23:35;101250.28;;;-4.33;76.05
77685;BME280;66844;46.092;18.268;2023-02-11T03:24:27;101257.50;;;-4.24;76.99
77685;BME280;66844;46.092;18.268;2023-02-11T03:25:01;101247.03;;;-4.26;76.28
77685;BME280;66844;46.092;18.268;2023-02-11T03:25:39;101249.69;;;-4.24;75.93
77685;BME280;66844;46.092;18.268;2023-02-11T03:27:00;101247.94;;;-4.25;76.11
77685;BME280;66844;46.092;18.268;2023-02-11T03:27:38;101248.75;;;-4.26;75.85
77685;BME280;66844;46.092;18.268;2023-02-11T03:28:35;101248.09;;;-4.19;76.76
77685;BME280;66844;46.092;18.268;2023-02-11T03:29:30;101240.22;;;-4.22;76.49
77685;BME280;66844;46.092;18.268;2023-02-11T03:30:04;101252.38;;;-4.21;75.76
77685;BME280;66844;46.092;18.268;2023-02-11T03:30:56;101252.31;;;-4.23;75.68
77685;BME280;66844;46.092;18.268;2023-02-11T03:32:50;101253.56;;;-4.10;76.79
77685;BME280;66844;46.092;18.268;2023-02-11T03:33:30;101254.56;;;-4.05;75.54
77685;BME280;66844;46.092;18.268;2023-02-11T03:34:07;101256.34;;;-4.04;75.97